sensor_id;sensor_type;location;lat;lon;timestamp;temperature;humidity
8105;DHT22;4095;48.942;9.104;2023-02-10T00:00:10;0.70;92.80
8105;DHT22;4095;48.942;9.104;2023-02-10T00:02:36;0.60;92.80
8105;DHT22;4095;48.942;9.104;2023-02-10T00:05:02;0.60;93.10
8105;DHT22;4095;48.942;9.104;2023-02-10T00:07:27;0.50;92.70
8105;DHT22;4095;48.942;9.104;2023-02-10T00:09:53;0.50;92.90
8105;DHT22;4095;48.942;9.104;2023-02-10T00:12:19;0.50;93.20
8105;DHT22;4095;48.942;9.104;2023-02-10T00:14:44;0.50;92.70
8105;DHT22;4095;48.942;9.104;2023-02-10T00:17:10;0.50;92.90
8105;DHT22;4095;48.942;9.104;2023-02-10T00:19:38;0.50;92.90
8105;DHT22;4095;48.942;9.104;2023-02-10T00:22:03;0.50;92.90
8105;DHT22;4095;48.942;9.104;2023-02-10T00:24:29;0.50;93.10
8105;DHT22;4095;48.942;9.104;2023-02-10T00:26:55;0.40;93.00
8105;DHT22;4095;48.942;9.104;2023-02-10T00:29:20;0.30;93.00
8105;DHT22;4095;48.942;9.104;2023-02-10T00:31:46;0.30;93.20
8105;DHT22;4095;48.942;9.104;2023-02-10T00:34:14;0.30;93.10
8105;DHT22;4095;48.942;9.104;2023-02-10T00:36:40;0.30;93.00
8105;DHT22;4095;48.942;9.104;2023-02-10T00:42:14;0.30;93.10
8105;DHT22;4095;48.942;9.104;2023-02-10T00:44:39;0.30;93.00
8105;DHT22;4095;48.942;9.104;2023-02-10T00:47:05;0.20;93.20
8105;DHT22;4095;48.942;9.104;2023-02-10T00:49:30;0.20;93.30
8105;DHT22;4095;48.942;9.104;2023-02-10T00:51:57;0.20;93.30
8105;DHT22;4095;48.942;9.104;2023-02-10T00:54:22;0.20;93.30
8105;DHT22;4095;48.942;9.104;2023-02-10T00:56:48;0.20;93.30
8105;DHT22;4095;48.942;9.104;2023-02-10T00:59:14;0.20;93.30
8105;DHT22;4095;48.942;9.104;2023-02-10T01:01:41;0.30;93.40
8105;DHT22;4095;48.942;9.104;2023-02-10T01:04:06;0.20;93.20
8105;DHT22;4095;48.942;9.104;2023-02-10T01:06:32;0.20;93.10
8105;DHT22;4095;48.942;9.104;2023-02-10T01:08:57;0.20;92.80
8105;DHT22;4095;48.942;9.104;2023-02-10T01:11:23;0.20;92.80
8105;DHT22;4095;48.942;9.104;2023-02-10T01:13:49;0.10;92.80
8105;DHT22;4095;48.942;9.104;2023-02-10T01:16:15;0.10;93.00
8105;DHT22;4095;48.942;9.104;2023-02-10T01:18:42;0.10;93.00
8105;DHT22;4095;48.942;9.104;2023-02-10T01:21:12;0.10;93.10
8105;DHT22;4095;48.942;9.104;2023-02-10T01:23:38;0.10;93.00
8105;DHT22;4095;48.942;9.104;2023-02-10T01:26:04;0.10;92.70
8105;DHT22;4095;48.942;9.104;2023-02-10T01:28:30;0.00;92.90
8105;DHT22;4095;48.942;9.104;2023-02-10T01:30:56;0.00;92.70
8105;DHT22;4095;48.942;9.104;2023-02-10T01:33:21;-0.10;92.70
8105;DHT22;4095;48.942;9.104;2023-02-10T01:35:47;0.00;92.90
8105;DHT22;4095;48.942;9.104;2023-02-10T01:38:13;-0.10;92.80
8105;DHT22;4095;48.942;9.104;2023-02-10T01:40:38;-0.10;92.80
8105;DHT22;4095;48.942;9.104;2023-02-10T01:43:15;-0.10;92.90
8105;DHT22;4095;48.942;9.104;2023-02-10T01:45:43;-0.10;92.80
8105;DHT22;4095;48.942;9.104;2023-02-10T01:48:11;-0.20;93.10
8105;DHT22;4095;48.942;9.104;2023-02-10T01:50:42;-0.20;92.90
8105;DHT22;4095;48.942;9.104;2023-02-10T01:53:12;-0.20;92.90
8105;DHT22;4095;48.942;9.104;2023-02-10T01:55:41;-0.20;93.00
8105;DHT22;4095;48.942;9.104;2023-02-10T01:58:11;-0.10;93.10
8105;DHT22;4095;48.942;9.104;2023-02-10T02:00:37;-0.10;92.70
8105;DHT22;4095;48.942;9.104;2023-02-10T02:03:04;-0.20;92.80
8105;DHT22;4095;48.942;9.104;2023-02-10T02:05:32;-0.20;92.60
8105;DHT22;4095;48.942;9.104;2023-02-10T02:08:05;-0.20;92.60
8105;DHT22;4095;48.942;9.104;2023-02-10T02:13:28;-0.20;93.00
8105;DHT22;4095;48.942;9.104;2023-02-10T02:18:49;-0.20;92.60
8105;DHT22;4095;48.942;9.104;2023-02-10T02:34:52;-0.40;92.60
8105;DHT22;4095;48.942;9.104;2023-02-10T02:37:26;-0.40;92.90
8105;DHT22;4095;48.942;9.104;2023-02-10T02:39:54;-0.40;93.10
8105;DHT22;4095;48.942;9.104;2023-02-10T02:42:29;-0.40;93.10
8105;DHT22;4095;48.942;9.104;2023-02-10T02:45:17;-0.30;93.30
8105;DHT22;4095;48.942;9.104;2023-02-10T02:53:58;-0.30;93.10
8105;DHT22;4095;48.942;9.104;2023-02-10T02:58:53;-0.30;93.10
8105;DHT22;4095;48.942;9.104;2023-02-10T03:01:31;-0.40;93.00
8105;DHT22;4095;48.942;9.104;2023-02-10T03:03:59;-0.40;93.00
8105;DHT22;4095;48.942;9.104;2023-02-10T03:06:26;-0.40;92.90
8105;DHT22;4095;48.942;9.104;2023-02-10T03:08:51;-0.40;93.10
8105;DHT22;4095;48.942;9.104;2023-02-10T03:11:17;-0.40;93.10
8105;DHT22;4095;48.942;9.104;2023-02-10T03:13:43;-0.40;92.90
8105;DHT22;4095;48.942;9.104;2023-02-10T03:16:08;-0.50;92.60
8105;DHT22;4095;48.942;9.104;2023-02-10T03:18:34;-0.50;92.70
8105;DHT22;4095;48.942;9.104;2023-02-10T03:21:00;-0.40;92.90
8105;DHT22;4095;48.942;9.104;2023-02-10T03:23:25;-0.50;92.90
8105;DHT22;4095;48.942;9.104;2023-02-10T03:25:51;-0.50;92.90
8105;DHT22;4095;48.942;9.104;2023-02-10T03:28:17;-0.50;93.00
8105;DHT22;4095;48.942;9.104;2023-02-10T03:30:43;-0.50;93.10
8105;DHT22;4095;48.942;9.104;2023-02-10T03:33:13;-0.60;92.90
8105;DHT22;4095;48.942;9.104;2023-02-10T03:35:39;-0.60;92.90
8105;DHT22;4095;48.942;9.104;2023-02-10T03:38:05;-0.60;93.10
8105;DHT22;4095;48.942;9.104;2023-02-10T03:40:31;-0.70;92.90
8105;DHT22;4095;48.942;9.104;2023-02-10T03:42:57;-0.70;93.00
8105;DHT22;4095;48.942;9.104;2023-02-10T03:45:22;-0.70;92.90
8105;DHT22;4095;48.942;9.104;2023-02-10T03:47:48;-0.80;92.90
8105;DHT22;4095;48.942;9.104;2023-02-10T03:50:13;-0.80;93.00
8105;DHT22;4095;48.942;9.104;2023-02-10T03:52:39;-0.70;93.20
8105;DHT22;4095;48.942;9.104;2023-02-10T03:55:07;-0.80;92.80
8105;DHT22;4095;48.942;9.104;2023-02-10T03:57:32;-0.80;92.80
8105;DHT22;4095;48.942;9.104;2023-02-10T03:59:58;-0.80;93.00
8105;DHT22;4095;48.942;9.104;2023-02-10T04:02:24;-0.90;92.80
8105;DHT22;4095;48.942;9.104;2023-02-10T04:04:49;-0.80;92.80
8105;DHT22;4095;48.942;9.104;2023-02-10T04:07:15;-0.90;92.70
8105;DHT22;4095;48.942;9.104;2023-02-10T04:09:41;-0.80;92.90
8105;DHT22;4095;48.942;9.104;2023-02-10T04:12:06;-0.80;92.90
8105;DHT22;4095;48.942;9.104;2023-02-10T04:14:32;-0.90;92.90
8105;DHT22;4095;48.942;9.104;2023-02-10T04:16:58;-0.90;92.70
8105;DHT22;4095;48.942;9.104;2023-02-10T04:19:24;-1.00;92.90
8105;DHT22;4095;48.942;9.104;2023-02-10T04:21:49;-0.90;92.90
8105;DHT22;4095;48.942;9.104;2023-02-10T04:24:15;-0.90;93.00
8105;DHT22;4095;48.942;9.104;2023-02-10T04:26:43;-0.90;93.00
8105;DHT22;4095;48.942;9.104;2023-02-10T04:29:09;-0.90;92.80
8105;DHT22;4095;48.942;9.104;2023-02-10T04:31:34;-0.90;92.80
8105;DHT22;4095;48.942;9.104;2023-02-10T04:34:00;-1.00;92.60
8105;DHT22;4095;48.942;9.104;2023-02-10T04:36:26;-1.00;92.70
8105;DHT22;4095;48.942;9.104;2023-02-10T04:38:51;-1.00;92.50
8105;DHT22;4095;48.942;9.104;2023-02-10T04:41:17;-1.00;92.60
8105;DHT22;4095;48.942;9.104;2023-02-10T04:43:42;-1.00;92.50
8105;DHT22;4095;48.942;9.104;2023-02-10T04:46:08;-1.00;92.70
8105;DHT22;4095;48.942;9.104;2023-02-10T04:48:34;-1.00;92.80
8105;DHT22;4095;48.942;9.104;2023-02-10T04:51:05;-1.00;92.80
8105;DHT22;4095;48.942;9.104;2023-02-10T04:53:30;-1.00;92.80
8105;DHT22;4095;48.942;9.104;2023-02-10T04:55:56;-0.90;93.10
8105;DHT22;4095;48.942;9.104;2023-02-10T04:58:21;-0.90;93.10
8105;DHT22;4095;48.942;9.104;2023-02-10T05:00:47;-0.90;93.10
8105;DHT22;4095;48.942;9.104;2023-02-10T05:03:13;-0.90;93.00
8105;DHT22;4095;48.942;9.104;2023-02-10T05:05:38;-0.90;93.00
8105;DHT22;4095;48.942;9.104;2023-02-10T05:08:04;-0.90;93.00
8105;DHT22;4095;48.942;9.104;2023-02-10T05:10:29;-0.90;92.80
8105;DHT22;4095;48.942;9.104;2023-02-10T05:12:55;-0.90;92.80
8105;DHT22;4095;48.942;9.104;2023-02-10T05:15:21;-1.00;92.60
8105;DHT22;4095;48.942;9.104;2023-02-10T05:17:46;-1.00;92.40
8105;DHT22;4095;48.942;9.104;2023-02-10T05:20:12;-1.10;92.40
8105;DHT22;4095;48.942;9.104;2023-02-10T05:22:38;-1.10;92.50
8105;DHT22;4095;48.942;9.104;2023-02-10T05:25:05;-1.10;92.50
8105;DHT22;4095;48.942;9.104;2023-02-10T05:27:30;-1.10;92.50
8105;DHT22;4095;48.942;9.104;2023-02-10T05:29:56;-1.10;92.50
8105;DHT22;4095;48.942;9.104;2023-02-10T05:32:21;-1.10;92.50
8105;DHT22;4095;48.942;9.104;2023-02-10T05:34:47;-1.10;92.60
8105;DHT22;4095;48.942;9.104;2023-02-10T05:37:13;-1.10;92.60
8105;DHT22;4095;48.942;9.104;2023-02-10T05:39:38;-1.20;92.40
8105;DHT22;4095;48.942;9.104;2023-02-10T05:42:05;-1.20;92.70
8105;DHT22;4095;48.942;9.104;2023-02-10T05:44:31;-1.20;92.60
8105;DHT22;4095;48.942;9.104;2023-02-10T05:46:57;-1.10;92.70
8105;DHT22;4095;48.942;9.104;2023-02-10T05:49:23;-1.20;92.60
8105;DHT22;4095;48.942;9.104;2023-02-10T05:51:49;-1.20;92.70
8105;DHT22;4095;48.942;9.104;2023-02-10T05:54:14;-1.10;92.70
8105;DHT22;4095;48.942;9.104;2023-02-10T05:56:41;-1.20;92.70
8105;DHT22;4095;48.942;9.104;2023-02-10T05:59:07;-1.10;92.90
8105;DHT22;4095;48.942;9.104;2023-02-10T06:01:33;-1.20;92.70
8105;DHT22;4095;48.942;9.104;2023-02-10T06:03:58;-1.10;92.80
8105;DHT22;4095;48.942;9.104;2023-02-10T06:06:24;-1.20;92.40
8105;DHT22;4095;48.942;9.104;2023-02-10T06:08:49;-1.30;92.40
8105;DHT22;4095;48.942;9.104;2023-02-10T06:11:15;-1.20;92.70
8105;DHT22;4095;48.942;9.104;2023-02-10T06:13:41;-1.20;92.50
8105;DHT22;4095;48.942;9.104;2023-02-10T06:16:08;-1.30;92.40
8105;DHT22;4095;48.942;9.104;2023-02-10T06:18:34;-1.20;92.70
8105;DHT22;4095;48.942;9.104;2023-02-10T06:21:00;-1.20;92.90
8105;DHT22;4095;48.942;9.104;2023-02-10T06:23:26;-1.20;92.60
8105;DHT22;4095;48.942;9.104;2023-02-10T06:25:52;-1.30;92.60
8105;DHT22;4095;48.942;9.104;2023-02-10T06:28:23;-1.20;92.80
8105;DHT22;4095;48.942;9.104;2023-02-10T06:30:49;-1.20;92.70
8105;DHT22;4095;48.942;9.104;2023-02-10T06:33:14;-1.20;92.80
8105;DHT22;4095;48.942;9.104;2023-02-10T06:35:40;-1.30;92.90
8105;DHT22;4095;48.942;9.104;2023-02-10T06:38:06;-1.20;92.90
8105;DHT22;4095;48.942;9.104;2023-02-10T06:40:31;-1.30;92.60
8105;DHT22;4095;48.942;9.104;2023-02-10T06:42:57;-1.20;92.80
8105;DHT22;4095;48.942;9.104;2023-02-10T06:45:23;-1.20;92.80
8105;DHT22;4095;48.942;9.104;2023-02-10T06:47:48;-1.20;92.80
8105;DHT22;4095;48.942;9.104;2023-02-10T06:50:14;-1.20;92.90
8105;DHT22;4095;48.942;9.104;2023-02-10T06:52:40;-1.10;93.20
8105;DHT22;4095;48.942;9.104;2023-02-10T06:55:07;-1.10;93.20
8105;DHT22;4095;48.942;9.104;2023-02-10T06:57:34;-1.10;92.90
8105;DHT22;4095;48.942;9.104;2023-02-10T07:00:02;-1.00;92.90
8105;DHT22;4095;48.942;9.104;2023-02-10T07:02:28;-1.10;92.60
8105;DHT22;4095;48.942;9.104;2023-02-10T07:04:54;-1.10;92.60
8105;DHT22;4095;48.942;9.104;2023-02-10T07:07:20;-1.10;92.60
8105;DHT22;4095;48.942;9.104;2023-02-10T07:09:46;-1.10;92.90
8105;DHT22;4095;48.942;9.104;2023-02-10T07:12:11;-1.10;93.00
8105;DHT22;4095;48.942;9.104;2023-02-10T07:14:37;-1.00;93.00
8105;DHT22;4095;48.942;9.104;2023-02-10T07:17:03;-1.00;93.00
8105;DHT22;4095;48.942;9.104;2023-02-10T07:19:29;-0.90;93.00
8105;DHT22;4095;48.942;9.104;2023-02-10T07:21:56;-0.90;93.20
8105;DHT22;4095;48.942;9.104;2023-02-10T07:24:22;-0.80;93.40
8105;DHT22;4095;48.942;9.104;2023-02-10T07:26:47;-0.80;93.50
8105;DHT22;4095;48.942;9.104;2023-02-10T07:29:13;-0.80;93.50
8105;DHT22;4095;48.942;9.104;2023-02-10T07:31:38;-0.70;93.40
8105;DHT22;4095;48.942;9.104;2023-02-10T07:34:04;-0.60;93.50
8105;DHT22;4095;48.942;9.104;2023-02-10T07:36:30;-0.50;93.60
8105;DHT22;4095;48.942;9.104;2023-02-10T07:38:55;-0.50;93.50
8105;DHT22;4095;48.942;9.104;2023-02-10T07:41:21;-0.40;93.40
8105;DHT22;4095;48.942;9.104;2023-02-10T07:43:47;-0.40;93.20
8105;DHT22;4095;48.942;9.104;2023-02-10T07:46:12;-0.40;93.30
8105;DHT22;4095;48.942;9.104;2023-02-10T07:48:38;-0.30;93.50
8105;DHT22;4095;48.942;9.104;2023-02-10T07:51:04;-0.30;93.60
8105;DHT22;4095;48.942;9.104;2023-02-10T07:53:29;-0.20;93.60
8105;DHT22;4095;48.942;9.104;2023-02-10T07:55:58;-0.30;93.60
8105;DHT22;4095;48.942;9.104;2023-02-10T07:58:24;-0.20;93.80
8105;DHT22;4095;48.942;9.104;2023-02-10T08:00:49;-0.20;93.90
8105;DHT22;4095;48.942;9.104;2023-02-10T08:03:15;-0.10;93.90
8105;DHT22;4095;48.942;9.104;2023-02-10T08:05:41;0.10;94.00
8105;DHT22;4095;48.942;9.104;2023-02-10T08:08:10;0.20;93.90
8105;DHT22;4095;48.942;9.104;2023-02-10T08:10:37;0.40;93.90
8105;DHT22;4095;48.942;9.104;2023-02-10T08:13:03;0.40;93.90
8105;DHT22;4095;48.942;9.104;2023-02-10T08:15:28;0.40;93.80
8105;DHT22;4095;48.942;9.104;2023-02-10T08:17:54;0.50;93.80
8105;DHT22;4095;48.942;9.104;2023-02-10T08:20:19;0.60;93.80
8105;DHT22;4095;48.942;9.104;2023-02-10T08:22:45;0.70;93.90
8105;DHT22;4095;48.942;9.104;2023-02-10T08:25:11;0.70;94.00
8105;DHT22;4095;48.942;9.104;2023-02-10T08:27:36;0.70;93.90
8105;DHT22;4095;48.942;9.104;2023-02-10T08:30:03;0.80;93.80
8105;DHT22;4095;48.942;9.104;2023-02-10T08:32:31;0.90;94.00
8105;DHT22;4095;48.942;9.104;2023-02-10T08:34:56;1.00;94.00
8105;DHT22;4095;48.942;9.104;2023-02-10T08:37:22;1.10;94.00
8105;DHT22;4095;48.942;9.104;2023-02-10T08:39:48;1.10;94.00
8105;DHT22;4095;48.942;9.104;2023-02-10T08:42:13;1.20;94.30
8105;DHT22;4095;48.942;9.104;2023-02-10T08:44:39;1.30;94.10
8105;DHT22;4095;48.942;9.104;2023-02-10T08:47:05;1.40;94.30
8105;DHT22;4095;48.942;9.104;2023-02-10T08:49:30;1.40;94.20
8105;DHT22;4095;48.942;9.104;2023-02-10T08:51:56;1.50;94.20
8105;DHT22;4095;48.942;9.104;2023-02-10T08:54:22;1.60;94.10
8105;DHT22;4095;48.942;9.104;2023-02-10T08:56:48;1.70;94.00
8105;DHT22;4095;48.942;9.104;2023-02-10T08:59:14;1.80;93.90
8105;DHT22;4095;48.942;9.104;2023-02-10T09:01:39;1.90;94.10
8105;DHT22;4095;48.942;9.104;2023-02-10T09:04:05;2.10;94.10
8105;DHT22;4095;48.942;9.104;2023-02-10T09:06:34;2.20;94.00
8105;DHT22;4095;48.942;9.104;2023-02-10T09:09:05;2.30;94.00
8105;DHT22;4095;48.942;9.104;2023-02-10T09:11:32;2.40;94.20
8105;DHT22;4095;48.942;9.104;2023-02-10T09:13:57;2.60;93.90
8105;DHT22;4095;48.942;9.104;2023-02-10T09:16:23;2.70;93.90
8105;DHT22;4095;48.942;9.104;2023-02-10T09:18:49;2.90;93.90
8105;DHT22;4095;48.942;9.104;2023-02-10T09:21:16;3.10;94.20
8105;DHT22;4095;48.942;9.104;2023-02-10T09:23:42;3.20;93.80
8105;DHT22;4095;48.942;9.104;2023-02-10T09:26:07;3.40;94.00
8105;DHT22;4095;48.942;9.104;2023-02-10T09:28:33;3.50;94.20
8105;DHT22;4095;48.942;9.104;2023-02-10T09:30:59;3.70;94.30
8105;DHT22;4095;48.942;9.104;2023-02-10T09:33:25;3.80;93.90
8105;DHT22;4095;48.942;9.104;2023-02-10T09:35:51;3.90;94.20
8105;DHT22;4095;48.942;9.104;2023-02-10T09:38:16;4.10;93.80
8105;DHT22;4095;48.942;9.104;2023-02-10T09:54:25;5.10;92.40
8105;DHT22;4095;48.942;9.104;2023-02-10T09:57:08;5.20;92.10
8105;DHT22;4095;48.942;9.104;2023-02-10T09:59:36;5.40;92.20
8105;DHT22;4095;48.942;9.104;2023-02-10T10:02:13;5.60;92.20
8105;DHT22;4095;48.942;9.104;2023-02-10T10:04:39;5.70;92.00
8105;DHT22;4095;48.942;9.104;2023-02-10T10:07:21;6.00;92.40
8105;DHT22;4095;48.942;9.104;2023-02-10T10:12:37;6.50;91.70
8105;DHT22;4095;48.942;9.104;2023-02-10T10:15:06;6.70;91.20
8105;DHT22;4095;48.942;9.104;2023-02-10T10:31:23;7.80;89.70
8105;DHT22;4095;48.942;9.104;2023-02-10T10:34:28;8.10;88.50
8105;DHT22;4095;48.942;9.104;2023-02-10T10:36:50;8.50;88.70
8105;DHT22;4095;48.942;9.104;2023-02-10T10:39:35;9.00;86.70
8105;DHT22;4095;48.942;9.104;2023-02-10T10:44:47;10.10;84.10
8105;DHT22;4095;48.942;9.104;2023-02-10T10:47:18;10.80;82.60
8105;DHT22;4095;48.942;9.104;2023-02-10T10:49:45;11.70;79.80
8105;DHT22;4095;48.942;9.104;2023-02-10T10:52:28;12.60;76.90
8105;DHT22;4095;48.942;9.104;2023-02-10T10:54:55;13.50;73.80
8105;DHT22;4095;48.942;9.104;2023-02-10T10:57:23;14.30;71.50
8105;DHT22;4095;48.942;9.104;2023-02-10T11:00:35;15.10;71.60
8105;DHT22;4095;48.942;9.104;2023-02-10T11:03:00;15.60;68.60
8105;DHT22;4095;48.942;9.104;2023-02-10T11:05:35;16.50;67.70
8105;DHT22;4095;48.942;9.104;2023-02-10T11:08:04;17.20;64.30
8105;DHT22;4095;48.942;9.104;2023-02-10T11:10:51;17.60;63.50
8105;DHT22;4095;48.942;9.104;2023-02-10T11:13:23;18.10;61.20
8105;DHT22;4095;48.942;9.104;2023-02-10T11:16:14;18.60;60.00
8105;DHT22;4095;48.942;9.104;2023-02-10T11:19:00;19.10;60.20
8105;DHT22;4095;48.942;9.104;2023-02-10T11:21:34;19.20;58.20
8105;DHT22;4095;48.942;9.104;2023-02-10T11:24:00;19.40;57.20
8105;DHT22;4095;48.942;9.104;2023-02-10T11:26:26;19.60;57.50
8105;DHT22;4095;48.942;9.104;2023-02-10T11:28:53;19.70;55.20
8105;DHT22;4095;48.942;9.104;2023-02-10T11:33:58;20.00;55.30
8105;DHT22;4095;48.942;9.104;2023-02-10T11:36:34;19.90;55.00
8105;DHT22;4095;48.942;9.104;2023-02-10T11:39:14;19.80;53.40
8105;DHT22;4095;48.942;9.104;2023-02-10T11:41:41;20.00;54.30
8105;DHT22;4095;48.942;9.104;2023-02-10T11:44:29;20.10;54.50
8105;DHT22;4095;48.942;9.104;2023-02-10T11:47:03;20.30;52.60
8105;DHT22;4095;48.942;9.104;2023-02-10T11:49:34;20.40;52.30
8105;DHT22;4095;48.942;9.104;2023-02-10T11:52:03;20.50;52.40
8105;DHT22;4095;48.942;9.104;2023-02-10T11:54:29;20.40;52.30
8105;DHT22;4095;48.942;9.104;2023-02-10T12:08:29;20.20;49.60
8105;DHT22;4095;48.942;9.104;2023-02-10T12:13:52;19.80;49.60
8105;DHT22;4095;48.942;9.104;2023-02-10T12:19:17;19.20;50.60
8105;DHT22;4095;48.942;9.104;2023-02-10T12:27:21;19.20;51.10
8105;DHT22;4095;48.942;9.104;2023-02-10T12:29:52;18.90;51.50
8105;DHT22;4095;48.942;9.104;2023-02-10T12:46:36;18.70;50.20
8105;DHT22;4095;48.942;9.104;2023-02-10T12:49:14;18.50;50.50
8105;DHT22;4095;48.942;9.104;2023-02-10T12:52:00;17.90;50.40
8105;DHT22;4095;48.942;9.104;2023-02-10T12:54:36;17.90;51.00
8105;DHT22;4095;48.942;9.104;2023-02-10T12:57:27;18.20;51.10
8105;DHT22;4095;48.942;9.104;2023-02-10T13:00:08;18.40;51.30
8105;DHT22;4095;48.942;9.104;2023-02-10T13:03:05;18.60;50.70
8105;DHT22;4095;48.942;9.104;2023-02-10T13:05:43;18.60;50.70
8105;DHT22;4095;48.942;9.104;2023-02-10T13:08:17;18.70;51.00
8105;DHT22;4095;48.942;9.104;2023-02-10T13:10:48;18.70;50.70
8105;DHT22;4095;48.942;9.104;2023-02-10T13:13:19;18.70;51.80
8105;DHT22;4095;48.942;9.104;2023-02-10T13:18:26;17.80;52.80
8105;DHT22;4095;48.942;9.104;2023-02-10T13:21:15;17.40;52.10
8105;DHT22;4095;48.942;9.104;2023-02-10T13:34:15;14.80;58.40
8105;DHT22;4095;48.942;9.104;2023-02-10T13:36:42;14.20;58.60
8105;DHT22;4095;48.942;9.104;2023-02-10T13:39:19;13.90;58.40
8105;DHT22;4095;48.942;9.104;2023-02-10T13:41:49;13.70;58.70
8105;DHT22;4095;48.942;9.104;2023-02-10T13:44:36;13.40;60.30
8105;DHT22;4095;48.942;9.104;2023-02-10T13:50:41;12.90;61.30
8105;DHT22;4095;48.942;9.104;2023-02-10T13:53:00;12.70;61.10
8105;DHT22;4095;48.942;9.104;2023-02-10T14:00:47;12.50;62.60
8105;DHT22;4095;48.942;9.104;2023-02-10T14:13:34;13.00;62.70
8105;DHT22;4095;48.942;9.104;2023-02-10T14:18:42;13.30;60.60
8105;DHT22;4095;48.942;9.104;2023-02-10T14:21:11;13.40;60.70
8105;DHT22;4095;48.942;9.104;2023-02-10T14:23:40;13.40;59.80
8105;DHT22;4095;48.942;9.104;2023-02-10T14:26:30;13.50;60.30
8105;DHT22;4095;48.942;9.104;2023-02-10T14:28:58;13.50;58.90
8105;DHT22;4095;48.942;9.104;2023-02-10T14:31:28;13.60;58.10
8105;DHT22;4095;48.942;9.104;2023-02-10T14:33:56;13.60;57.70
8105;DHT22;4095;48.942;9.104;2023-02-10T14:36:23;13.60;58.00
8105;DHT22;4095;48.942;9.104;2023-02-10T14:38:52;13.80;58.80
8105;DHT22;4095;48.942;9.104;2023-02-10T14:41:19;14.00;59.30
8105;DHT22;4095;48.942;9.104;2023-02-10T14:43:45;14.00;59.00
8105;DHT22;4095;48.942;9.104;2023-02-10T14:46:21;14.00;59.20
8105;DHT22;4095;48.942;9.104;2023-02-10T14:48:48;14.00;57.20
8105;DHT22;4095;48.942;9.104;2023-02-10T14:51:22;14.10;57.60
8105;DHT22;4095;48.942;9.104;2023-02-10T14:53:48;14.00;56.50
8105;DHT22;4095;48.942;9.104;2023-02-10T14:56:18;14.00;58.50
8105;DHT22;4095;48.942;9.104;2023-02-10T14:58:44;13.90;58.30
8105;DHT22;4095;48.942;9.104;2023-02-10T15:03:40;13.70;58.40
8105;DHT22;4095;48.942;9.104;2023-02-10T15:06:06;13.60;57.30
8105;DHT22;4095;48.942;9.104;2023-02-10T15:08:42;13.50;59.00
8105;DHT22;4095;48.942;9.104;2023-02-10T15:11:15;13.40;59.10
8105;DHT22;4095;48.942;9.104;2023-02-10T15:14:02;13.30;59.20
8105;DHT22;4095;48.942;9.104;2023-02-10T15:16:29;13.10;59.10
8105;DHT22;4095;48.942;9.104;2023-02-10T15:18:55;12.90;57.90
8105;DHT22;4095;48.942;9.104;2023-02-10T15:21:36;12.60;59.40
8105;DHT22;4095;48.942;9.104;2023-02-10T15:24:03;12.40;61.30
8105;DHT22;4095;48.942;9.104;2023-02-10T15:26:31;12.10;60.60
8105;DHT22;4095;48.942;9.104;2023-02-10T15:29:10;11.90;60.60
8105;DHT22;4095;48.942;9.104;2023-02-10T15:31:37;11.70;61.30
8105;DHT22;4095;48.942;9.104;2023-02-10T15:34:16;11.50;60.70
8105;DHT22;4095;48.942;9.104;2023-02-10T15:36:47;11.30;62.50
8105;DHT22;4095;48.942;9.104;2023-02-10T15:39:22;11.10;62.70
8105;DHT22;4095;48.942;9.104;2023-02-10T15:46:46;10.50;65.10
8105;DHT22;4095;48.942;9.104;2023-02-10T15:49:16;10.40;66.30
8105;DHT22;4095;48.942;9.104;2023-02-10T15:51:55;10.10;67.20
8105;DHT22;4095;48.942;9.104;2023-02-10T15:54:25;9.90;69.20
8105;DHT22;4095;48.942;9.104;2023-02-10T15:59:24;9.50;70.10
8105;DHT22;4095;48.942;9.104;2023-02-10T16:02:04;9.30;70.70
8105;DHT22;4095;48.942;9.104;2023-02-10T16:04:30;9.10;71.10
8105;DHT22;4095;48.942;9.104;2023-02-10T16:07:01;8.90;71.60
8105;DHT22;4095;48.942;9.104;2023-02-10T16:09:27;8.80;72.30
8105;DHT22;4095;48.942;9.104;2023-02-10T16:11:54;8.60;73.20
8105;DHT22;4095;48.942;9.104;2023-02-10T16:14:19;8.50;73.80
8105;DHT22;4095;48.942;9.104;2023-02-10T16:16:48;8.40;74.30
8105;DHT22;4095;48.942;9.104;2023-02-10T16:19:18;8.30;74.90
8105;DHT22;4095;48.942;9.104;2023-02-10T16:21:44;8.10;75.50
8105;DHT22;4095;48.942;9.104;2023-02-10T16:24:19;8.00;76.10
8105;DHT22;4095;48.942;9.104;2023-02-10T16:26:46;7.80;77.30
8105;DHT22;4095;48.942;9.104;2023-02-10T16:29:18;7.70;78.30
8105;DHT22;4095;48.942;9.104;2023-02-10T16:31:44;7.50;79.00
8105;DHT22;4095;48.942;9.104;2023-02-10T16:34:11;7.40;79.80
8105;DHT22;4095;48.942;9.104;2023-02-10T16:36:37;7.30;80.10
8105;DHT22;4095;48.942;9.104;2023-02-10T16:39:04;7.30;80.20
8105;DHT22;4095;48.942;9.104;2023-02-10T16:41:29;7.20;80.30
8105;DHT22;4095;48.942;9.104;2023-02-10T16:43:55;7.10;80.10
8105;DHT22;4095;48.942;9.104;2023-02-10T16:46:21;7.10;80.60
8105;DHT22;4095;48.942;9.104;2023-02-10T16:48:47;7.10;80.90
8105;DHT22;4095;48.942;9.104;2023-02-10T16:51:13;7.00;81.10
8105;DHT22;4095;48.942;9.104;2023-02-10T16:53:39;6.90;81.90
8105;DHT22;4095;48.942;9.104;2023-02-10T16:56:05;6.80;83.30
8105;DHT22;4095;48.942;9.104;2023-02-10T16:58:31;6.80;82.70
8105;DHT22;4095;48.942;9.104;2023-02-10T17:00:56;6.60;82.40
8105;DHT22;4095;48.942;9.104;2023-02-10T17:03:22;6.40;83.10
8105;DHT22;4095;48.942;9.104;2023-02-10T17:05:48;6.30;83.50
8105;DHT22;4095;48.942;9.104;2023-02-10T17:08:14;6.20;84.60
8105;DHT22;4095;48.942;9.104;2023-02-10T17:10:40;6.00;84.70
8105;DHT22;4095;48.942;9.104;2023-02-10T17:13:06;5.80;85.20
8105;DHT22;4095;48.942;9.104;2023-02-10T17:15:33;5.70;85.90
8105;DHT22;4095;48.942;9.104;2023-02-10T17:17:59;5.60;86.40
8105;DHT22;4095;48.942;9.104;2023-02-10T17:20:30;5.60;86.90
8105;DHT22;4095;48.942;9.104;2023-02-10T17:22:56;5.60;87.00
8105;DHT22;4095;48.942;9.104;2023-02-10T17:25:22;5.60;87.40
8105;DHT22;4095;48.942;9.104;2023-02-10T17:27:49;5.60;87.70
8105;DHT22;4095;48.942;9.104;2023-02-10T17:30:18;5.60;88.00
8105;DHT22;4095;48.942;9.104;2023-02-10T17:32:45;5.50;88.70
8105;DHT22;4095;48.942;9.104;2023-02-10T17:35:13;5.50;89.40
8105;DHT22;4095;48.942;9.104;2023-02-10T17:37:39;5.50;89.60
8105;DHT22;4095;48.942;9.104;2023-02-10T17:40:05;5.50;89.20
8105;DHT22;4095;48.942;9.104;2023-02-10T17:42:37;5.40;88.20
8105;DHT22;4095;48.942;9.104;2023-02-10T17:45:03;5.40;88.20
8105;DHT22;4095;48.942;9.104;2023-02-10T17:47:29;5.30;88.70
8105;DHT22;4095;48.942;9.104;2023-02-10T17:49:54;5.30;90.00
8105;DHT22;4095;48.942;9.104;2023-02-10T17:52:20;5.20;89.90
8105;DHT22;4095;48.942;9.104;2023-02-10T17:54:45;5.10;89.50
8105;DHT22;4095;48.942;9.104;2023-02-10T17:57:11;5.10;89.40
8105;DHT22;4095;48.942;9.104;2023-02-10T17:59:40;5.00;89.40
8105;DHT22;4095;48.942;9.104;2023-02-10T18:02:09;5.00;89.80
8105;DHT22;4095;48.942;9.104;2023-02-10T18:04:35;5.00;90.20
8105;DHT22;4095;48.942;9.104;2023-02-10T18:07:01;5.00;90.10
8105;DHT22;4095;48.942;9.104;2023-02-10T18:09:26;5.10;90.20
8105;DHT22;4095;48.942;9.104;2023-02-10T18:11:55;5.00;90.10
8105;DHT22;4095;48.942;9.104;2023-02-10T18:14:20;5.00;89.90
8105;DHT22;4095;48.942;9.104;2023-02-10T18:16:46;5.00;89.80
8105;DHT22;4095;48.942;9.104;2023-02-10T18:19:12;4.90;89.70
8105;DHT22;4095;48.942;9.104;2023-02-10T18:21:37;4.90;90.00
8105;DHT22;4095;48.942;9.104;2023-02-10T18:24:03;4.80;90.10
8105;DHT22;4095;48.942;9.104;2023-02-10T18:26:29;4.70;90.40
8105;DHT22;4095;48.942;9.104;2023-02-10T18:28:54;4.70;90.70
8105;DHT22;4095;48.942;9.104;2023-02-10T18:31:20;4.80;91.00
8105;DHT22;4095;48.942;9.104;2023-02-10T18:33:45;4.80;90.60
8105;DHT22;4095;48.942;9.104;2023-02-10T18:36:14;4.80;90.60
8105;DHT22;4095;48.942;9.104;2023-02-10T18:38:40;4.80;90.40
8105;DHT22;4095;48.942;9.104;2023-02-10T18:41:06;4.70;90.30